sensor_id;sensor_type;location;lat;lon;timestamp;temperature;humidity
27306;DHT22;14792;50.886;6.468;2023-09-08T00:02:16;18.60;99.90
27306;DHT22;14792;50.886;6.468;2023-09-08T00:05:17;18.60;99.90
27306;DHT22;14792;50.886;6.468;2023-09-08T00:08:19;18.60;99.90
27306;DHT22;14792;50.886;6.468;2023-09-08T00:11:21;18.60;99.90
27306;DHT22;14792;50.886;6.468;2023-09-08T00:14:22;18.70;99.90
27306;DHT22;14792;50.886;6.468;2023-09-08T00:17:24;18.60;99.90
27306;DHT22;14792;50.886;6.468;2023-09-08T00:20:25;18.60;99.90
27306;DHT22;14792;50.886;6.468;2023-09-08T00:23:27;18.60;99.90
27306;DHT22;14792;50.886;6.468;2023-09-08T00:26:28;18.60;99.90
27306;DHT22;14792;50.886;6.468;2023-09-08T00:29:30;18.60;99.90
27306;DHT22;14792;50.886;6.468;2023-09-08T00:32:32;18.60;99.90
27306;DHT22;14792;50.886;6.468;2023-09-08T00:35:33;18.60;99.90
27306;DHT22;14792;50.886;6.468;2023-09-08T00:38:35;18.50;99.90
27306;DHT22;14792;50.886;6.468;2023-09-08T00:41:36;18.40;99.90
27306;DHT22;14792;50.886;6.468;2023-09-08T00:44:38;18.40;99.90
27306;DHT22;14792;50.886;6.468;2023-09-08T00:47:40;18.40;99.90
27306;DHT22;14792;50.886;6.468;2023-09-08T00:50:41;18.40;99.90
27306;DHT22;14792;50.886;6.468;2023-09-08T00:53:43;18.40;99.90
27306;DHT22;14792;50.886;6.468;2023-09-08T00:56:44;18.40;99.90
27306;DHT22;14792;50.886;6.468;2023-09-08T00:59:46;18.30;99.90
27306;DHT22;14792;50.886;6.468;2023-09-08T01:02:48;18.30;99.90
27306;DHT22;14792;50.886;6.468;2023-09-08T01:05:49;18.20;99.90
27306;DHT22;14792;50.886;6.468;2023-09-08T01:08:51;18.30;99.90
27306;DHT22;14792;50.886;6.468;2023-09-08T01:11:52;18.20;99.90
27306;DHT22;14792;50.886;6.468;2023-09-08T01:14:54;18.30;99.90
27306;DHT22;14792;50.886;6.468;2023-09-08T01:17:55;18.30;99.90
27306;DHT22;14792;50.886;6.468;2023-09-08T01:27:27;18.30;99.90
27306;DHT22;14792;50.886;6.468;2023-09-08T01:30:29;18.40;99.90
27306;DHT22;14792;50.886;6.468;2023-09-08T01:33:30;18.40;99.90
27306;DHT22;14792;50.886;6.468;2023-09-08T01:36:32;18.40;99.90
27306;DHT22;14792;50.886;6.468;2023-09-08T01:39:33;18.30;99.90
27306;DHT22;14792;50.886;6.468;2023-09-08T01:42:34;18.20;99.90
27306;DHT22;14792;50.886;6.468;2023-09-08T01:45:36;18.20;99.90
27306;DHT22;14792;50.886;6.468;2023-09-08T01:48:38;18.20;99.90
27306;DHT22;14792;50.886;6.468;2023-09-08T01:51:39;18.10;99.90
27306;DHT22;14792;50.886;6.468;2023-09-08T01:54:41;18.10;99.90
27306;DHT22;14792;50.886;6.468;2023-09-08T01:57:43;18.00;99.90
27306;DHT22;14792;50.886;6.468;2023-09-08T02:00:47;18.00;99.90
27306;DHT22;14792;50.886;6.468;2023-09-08T02:03:47;17.90;99.90
27306;DHT22;14792;50.886;6.468;2023-09-08T02:06:48;17.90;99.90
27306;DHT22;14792;50.886;6.468;2023-09-08T02:09:50;17.80;99.90
27306;DHT22;14792;50.886;6.468;2023-09-08T02:12:52;17.80;99.90
27306;DHT22;14792;50.886;6.468;2023-09-08T02:15:53;17.70;99.90
27306;DHT22;14792;50.886;6.468;2023-09-08T02:18:54;17.60;99.90
27306;DHT22;14792;50.886;6.468;2023-09-08T02:21:56;17.60;99.90
27306;DHT22;14792;50.886;6.468;2023-09-08T02:24:58;17.60;99.90
27306;DHT22;14792;50.886;6.468;2023-09-08T02:27:59;17.50;99.90
27306;DHT22;14792;50.886;6.468;2023-09-08T02:31:01;17.50;99.90
27306;DHT22;14792;50.886;6.468;2023-09-08T02:34:03;17.70;99.90
27306;DHT22;14792;50.886;6.468;2023-09-08T02:37:04;17.80;99.90
27306;DHT22;14792;50.886;6.468;2023-09-08T02:40:06;17.90;99.90
27306;DHT22;14792;50.886;6.468;2023-09-08T02:43:07;17.80;99.90
27306;DHT22;14792;50.886;6.468;2023-09-08T02:46:09;17.80;99.90
27306;DHT22;14792;50.886;6.468;2023-09-08T02:49:11;17.80;99.90
27306;DHT22;14792;50.886;6.468;2023-09-08T02:52:12;17.70;99.90
27306;DHT22;14792;50.886;6.468;2023-09-08T02:55:14;17.70;99.90
27306;DHT22;14792;50.886;6.468;2023-09-08T02:58:16;17.60;99.90
27306;DHT22;14792;50.886;6.468;2023-09-08T03:01:17;17.60;99.90
27306;DHT22;14792;50.886;6.468;2023-09-08T03:04:19;17.50;99.90
27306;DHT22;14792;50.886;6.468;2023-09-08T03:07:20;17.60;99.90
27306;DHT22;14792;50.886;6.468;2023-09-08T03:10:22;17.60;99.90
27306;DHT22;14792;50.886;6.468;2023-09-08T03:13:24;17.50;99.90
27306;DHT22;14792;50.886;6.468;2023-09-08T03:16:25;17.50;99.90
27306;DHT22;14792;50.886;6.468;2023-09-08T03:19:27;17.40;99.90
27306;DHT22;14792;50.886;6.468;2023-09-08T03:22:28;17.40;99.90
27306;DHT22;14792;50.886;6.468;2023-09-08T03:25:30;17.30;99.90
27306;DHT22;14792;50.886;6.468;2023-09-08T03:28:32;17.30;99.90
27306;DHT22;14792;50.886;6.468;2023-09-08T03:31:33;17.30;99.90
27306;DHT22;14792;50.886;6.468;2023-09-08T03:34:35;17.30;99.90
27306;DHT22;14792;50.886;6.468;2023-09-08T03:37:36;17.20;99.90
27306;DHT22;14792;50.886;6.468;2023-09-08T03:40:38;17.20;99.90
27306;DHT22;14792;50.886;6.468;2023-09-08T03:43:40;17.10;99.90
27306;DHT22;14792;50.886;6.468;2023-09-08T03:46:41;17.10;99.90
27306;DHT22;14792;50.886;6.468;2023-09-08T03:49:43;17.10;99.90
27306;DHT22;14792;50.886;6.468;2023-09-08T03:52:45;17.00;99.90
27306;DHT22;14792;50.886;6.468;2023-09-08T03:55:47;17.00;99.90
27306;DHT22;14792;50.886;6.468;2023-09-08T03:58:48;17.00;99.90
27306;DHT22;14792;50.886;6.468;2023-09-08T04:01:50;17.00;99.90
27306;DHT22;14792;50.886;6.468;2023-09-08T04:04:51;17.10;99.90
27306;DHT22;14792;50.886;6.468;2023-09-08T04:07:53;17.10;99.90
27306;DHT22;14792;50.886;6.468;2023-09-08T04:10:55;17.00;99.90
27306;DHT22;14792;50.886;6.468;2023-09-08T04:13:56;17.00;99.90
27306;DHT22;14792;50.886;6.468;2023-09-08T04:16:58;17.00;99.90
27306;DHT22;14792;50.886;6.468;2023-09-08T04:19:59;16.90;99.90
27306;DHT22;14792;50.886;6.468;2023-09-08T04:23:01;16.90;99.90
27306;DHT22;14792;50.886;6.468;2023-09-08T04:26:02;16.90;99.90
27306;DHT22;14792;50.886;6.468;2023-09-08T04:29:04;16.90;99.90
27306;DHT22;14792;50.886;6.468;2023-09-08T04:32:06;16.80;99.90
27306;DHT22;14792;50.886;6.468;2023-09-08T04:35:07;16.80;99.90
27306;DHT22;14792;50.886;6.468;2023-09-08T04:38:09;16.80;99.90
27306;DHT22;14792;50.886;6.468;2023-09-08T04:41:11;16.80;99.90
27306;DHT22;14792;50.886;6.468;2023-09-08T04:44:12;16.70;99.90
27306;DHT22;14792;50.886;6.468;2023-09-08T04:47:14;16.70;99.90
27306;DHT22;14792;50.886;6.468;2023-09-08T04:50:15;16.70;99.90
27306;DHT22;14792;50.886;6.468;2023-09-08T04:53:17;16.70;99.90
27306;DHT22;14792;50.886;6.468;2023-09-08T04:56:19;16.70;99.90
27306;DHT22;14792;50.886;6.468;2023-09-08T04:59:20;16.60;99.90
27306;DHT22;14792;50.886;6.468;2023-09-08T05:02:22;16.60;99.90
27306;DHT22;14792;50.886;6.468;2023-09-08T05:05:23;16.60;99.90
27306;DHT22;14792;50.886;6.468;2023-09-08T05:08:25;16.50;99.90
27306;DHT22;14792;50.886;6.468;2023-09-08T05:11:27;16.60;99.90
27306;DHT22;14792;50.886;6.468;2023-09-08T05:14:28;16.60;99.90
27306;DHT22;14792;50.886;6.468;2023-09-08T05:17:30;16.60;99.90
27306;DHT22;14792;50.886;6.468;2023-09-08T05:20:31;16.50;99.90
27306;DHT22;14792;50.886;6.468;2023-09-08T05:23:33;16.50;99.90
27306;DHT22;14792;50.886;6.468;2023-09-08T05:26:36;16.50;99.90
27306;DHT22;14792;50.886;6.468;2023-09-08T05:29:36;16.50;99.90
27306;DHT22;14792;50.886;6.468;2023-09-08T05:32:38;16.60;99.90
27306;DHT22;14792;50.886;6.468;2023-09-08T05:35:39;16.60;99.90
27306;DHT22;14792;50.886;6.468;2023-09-08T05:38:41;16.50;99.90
27306;DHT22;14792;50.886;6.468;2023-09-08T05:41:43;16.60;99.90
27306;DHT22;14792;50.886;6.468;2023-09-08T05:44:44;16.60;99.90
27306;DHT22;14792;50.886;6.468;2023-09-08T05:47:47;16.60;99.90
27306;DHT22;14792;50.886;6.468;2023-09-08T05:50:48;16.60;99.90
27306;DHT22;14792;50.886;6.468;2023-09-08T05:53:49;16.60;99.90
27306;DHT22;14792;50.886;6.468;2023-09-08T05:56:51;16.70;99.90
27306;DHT22;14792;50.886;6.468;2023-09-08T05:59:52;16.70;99.90
27306;DHT22;14792;50.886;6.468;2023-09-08T06:02:54;16.70;99.90
27306;DHT22;14792;50.886;6.468;2023-09-08T06:05:56;16.80;99.90
27306;DHT22;14792;50.886;6.468;2023-09-08T06:08:57;16.80;99.90
27306;DHT22;14792;50.886;6.468;2023-09-08T06:11:59;16.90;99.90
27306;DHT22;14792;50.886;6.468;2023-09-08T06:15:03;17.00;99.90
27306;DHT22;14792;50.886;6.468;2023-09-08T06:18:02;17.20;99.90
27306;DHT22;14792;50.886;6.468;2023-09-08T06:21:03;17.20;99.90
27306;DHT22;14792;50.886;6.468;2023-09-08T06:24:05;17.40;99.90
27306;DHT22;14792;50.886;6.468;2023-09-08T06:27:07;17.50;99.90
27306;DHT22;14792;50.886;6.468;2023-09-08T06:30:08;17.70;99.90
27306;DHT22;14792;50.886;6.468;2023-09-08T06:33:10;17.90;99.90
27306;DHT22;14792;50.886;6.468;2023-09-08T06:36:11;18.10;99.90
27306;DHT22;14792;50.886;6.468;2023-09-08T06:39:13;18.10;99.90
27306;DHT22;14792;50.886;6.468;2023-09-08T06:42:18;18.30;99.90
27306;DHT22;14792;50.886;6.468;2023-09-08T06:45:17;18.40;99.90
27306;DHT22;14792;50.886;6.468;2023-09-08T06:48:19;18.70;99.90
27306;DHT22;14792;50.886;6.468;2023-09-08T06:51:20;18.80;99.90
27306;DHT22;14792;50.886;6.468;2023-09-08T06:54:22;19.00;99.90
27306;DHT22;14792;50.886;6.468;2023-09-08T06:57:23;19.20;99.90
27306;DHT22;14792;50.886;6.468;2023-09-08T07:00:25;19.40;99.90
27306;DHT22;14792;50.886;6.468;2023-09-08T07:03:27;19.60;99.90
27306;DHT22;14792;50.886;6.468;2023-09-08T07:06:28;19.80;99.90
27306;DHT22;14792;50.886;6.468;2023-09-08T07:09:30;20.10;99.90
27306;DHT22;14792;50.886;6.468;2023-09-08T07:12:31;20.30;99.90
27306;DHT22;14792;50.886;6.468;2023-09-08T07:15:33;20.50;99.90
27306;DHT22;14792;50.886;6.468;2023-09-08T07:18:35;20.70;99.90
27306;DHT22;14792;50.886;6.468;2023-09-08T07:21:36;20.80;99.90
27306;DHT22;14792;50.886;6.468;2023-09-08T07:24:38;20.90;99.90
27306;DHT22;14792;50.886;6.468;2023-09-08T07:27:39;21.20;99.90
27306;DHT22;14792;50.886;6.468;2023-09-08T07:30:41;21.50;99.90
27306;DHT22;14792;50.886;6.468;2023-09-08T07:33:42;21.50;99.90
27306;DHT22;14792;50.886;6.468;2023-09-08T07:36:44;21.60;99.90
27306;DHT22;14792;50.886;6.468;2023-09-08T07:39:46;21.50;99.90
27306;DHT22;14792;50.886;6.468;2023-09-08T07:42:48;21.80;99.90
27306;DHT22;14792;50.886;6.468;2023-09-08T07:45:49;21.90;99.90
27306;DHT22;14792;50.886;6.468;2023-09-08T07:48:51;22.20;99.90
27306;DHT22;14792;50.886;6.468;2023-09-08T07:51:53;22.30;99.90
27306;DHT22;14792;50.886;6.468;2023-09-08T07:54:54;22.30;99.90
27306;DHT22;14792;50.886;6.468;2023-09-08T07:57:57;22.50;99.90
27306;DHT22;14792;50.886;6.468;2023-09-08T08:00:57;22.70;99.90
27306;DHT22;14792;50.886;6.468;2023-09-08T08:03:59;23.00;99.90
27306;DHT22;14792;50.886;6.468;2023-09-08T08:07:01;23.30;99.90
27306;DHT22;14792;50.886;6.468;2023-09-08T08:10:02;23.60;99.90
27306;DHT22;14792;50.886;6.468;2023-09-08T08:13:04;23.50;99.90
27306;DHT22;14792;50.886;6.468;2023-09-08T08:16:05;23.60;99.90
27306;DHT22;14792;50.886;6.468;2023-09-08T08:19:07;23.70;99.90
27306;DHT22;14792;50.886;6.468;2023-09-08T08:22:10;24.00;99.90
27306;DHT22;14792;50.886;6.468;2023-09-08T08:25:11;24.20;99.90
27306;DHT22;14792;50.886;6.468;2023-09-08T08:28:16;24.40;99.90
27306;DHT22;14792;50.886;6.468;2023-09-08T08:31:17;24.40;99.90
27306;DHT22;14792;50.886;6.468;2023-09-08T08:34:19;24.40;99.90
27306;DHT22;14792;50.886;6.468;2023-09-08T08:37:21;24.60;99.90
27306;DHT22;14792;50.886;6.468;2023-09-08T08:40:22;24.80;99.90
27306;DHT22;14792;50.886;6.468;2023-09-08T08:43:24;24.80;99.90
27306;DHT22;14792;50.886;6.468;2023-09-08T08:46:25;25.00;99.90
27306;DHT22;14792;50.886;6.468;2023-09-08T08:49:29;25.10;99.90
27306;DHT22;14792;50.886;6.468;2023-09-08T08:52:30;25.30;99.90
27306;DHT22;14792;50.886;6.468;2023-09-08T08:55:31;25.60;99.90
27306;DHT22;14792;50.886;6.468;2023-09-08T08:58:33;25.70;99.90
27306;DHT22;14792;50.886;6.468;2023-09-08T09:01:35;25.90;99.90
27306;DHT22;14792;50.886;6.468;2023-09-08T09:04:36;25.90;99.90
27306;DHT22;14792;50.886;6.468;2023-09-08T09:07:38;26.20;99.90
27306;DHT22;14792;50.886;6.468;2023-09-08T09:10:39;26.20;99.90
27306;DHT22;14792;50.886;6.468;2023-09-08T09:13:41;26.20;99.90
27306;DHT22;14792;50.886;6.468;2023-09-08T09:16:43;26.50;99.90
27306;DHT22;14792;50.886;6.468;2023-09-08T09:19:44;26.70;99.90
27306;DHT22;14792;50.886;6.468;2023-09-08T09:22:46;27.00;99.90
27306;DHT22;14792;50.886;6.468;2023-09-08T09:25:48;27.10;99.90
27306;DHT22;14792;50.886;6.468;2023-09-08T09:28:49;27.40;99.90
27306;DHT22;14792;50.886;6.468;2023-09-08T09:32:03;27.20;99.90
27306;DHT22;14792;50.886;6.468;2023-09-08T09:35:04;27.50;99.90
27306;DHT22;14792;50.886;6.468;2023-09-08T09:38:06;27.80;99.90
27306;DHT22;14792;50.886;6.468;2023-09-08T09:41:07;28.00;99.90
27306;DHT22;14792;50.886;6.468;2023-09-08T09:44:09;27.90;99.90
27306;DHT22;14792;50.886;6.468;2023-09-08T09:47:10;27.80;99.90
27306;DHT22;14792;50.886;6.468;2023-09-08T09:50:12;27.80;99.90
27306;DHT22;14792;50.886;6.468;2023-09-08T09:53:14;28.00;99.90
27306;DHT22;14792;50.886;6.468;2023-09-08T09:56:17;27.80;99.90
27306;DHT22;14792;50.886;6.468;2023-09-08T09:59:18;28.00;99.90
27306;DHT22;14792;50.886;6.468;2023-09-08T10:02:20;28.00;99.90
27306;DHT22;14792;50.886;6.468;2023-09-08T10:05:23;28.40;99.90
27306;DHT22;14792;50.886;6.468;2023-09-08T10:08:23;28.60;99.90
27306;DHT22;14792;50.886;6.468;2023-09-08T10:11:24;29.00;99.90
27306;DHT22;14792;50.886;6.468;2023-09-08T10:14:26;29.10;99.90
27306;DHT22;14792;50.886;6.468;2023-09-08T10:17:27;28.90;99.90
27306;DHT22;14792;50.886;6.468;2023-09-08T10:20:29;28.90;99.90
27306;DHT22;14792;50.886;6.468;2023-09-08T10:23:38;28.90;99.90
27306;DHT22;14792;50.886;6.468;2023-09-08T10:26:39;29.10;99.90
27306;DHT22;14792;50.886;6.468;2023-09-08T10:29:40;29.10;99.90
27306;DHT22;14792;50.886;6.468;2023-09-08T10:32:42;29.10;99.90
27306;DHT22;14792;50.886;6.468;2023-09-08T10:35:43;29.30;99.90
27306;DHT22;14792;50.886;6.468;2023-09-08T10:38:44;29.20;99.90
27306;DHT22;14792;50.886;6.468;2023-09-08T10:41:46;29.50;99.90
27306;DHT22;14792;50.886;6.468;2023-09-08T10:50:50;28.80;99.90
27306;DHT22;14792;50.886;6.468;2023-09-08T10:53:52;29.00;99.90
27306;DHT22;14792;50.886;6.468;2023-09-08T10:56:54;29.10;99.90
27306;DHT22;14792;50.886;6.468;2023-09-08T10:59:58;29.50;99.90
27306;DHT22;14792;50.886;6.468;2023-09-08T11:02:56;29.90;99.90
27306;DHT22;14792;50.886;6.468;2023-09-08T11:05:58;29.90;99.90
27306;DHT22;14792;50.886;6.468;2023-09-08T11:09:05;30.00;99.90
27306;DHT22;14792;50.886;6.468;2023-09-08T11:12:01;30.10;99.90
27306;DHT22;14792;50.886;6.468;2023-09-08T11:15:03;30.40;99.90
27306;DHT22;14792;50.886;6.468;2023-09-08T11:18:06;30.80;99.90
27306;DHT22;14792;50.886;6.468;2023-09-08T11:21:08;30.50;99.90
27306;DHT22;14792;50.886;6.468;2023-09-08T11:24:09;30.30;99.90
27306;DHT22;14792;50.886;6.468;2023-09-08T11:27:13;30.40;99.90
27306;DHT22;14792;50.886;6.468;2023-09-08T11:30:15;30.60;99.90
27306;DHT22;14792;50.886;6.468;2023-09-08T11:33:18;30.90;99.90
27306;DHT22;14792;50.886;6.468;2023-09-08T11:36:18;30.80;99.90
27306;DHT22;14792;50.886;6.468;2023-09-08T11:39:23;30.60;99.90
27306;DHT22;14792;50.886;6.468;2023-09-08T11:42:21;30.50;99.90
27306;DHT22;14792;50.886;6.468;2023-09-08T11:45:23;31.00;99.90
27306;DHT22;14792;50.886;6.468;2023-09-08T11:48:24;31.20;99.90
27306;DHT22;14792;50.886;6.468;2023-09-08T11:51:25;31.20;99.90
27306;DHT22;14792;50.886;6.468;2023-09-08T11:54:27;31.40;99.90
27306;DHT22;14792;50.886;6.468;2023-09-08T11:57:28;31.40;99.90
27306;DHT22;14792;50.886;6.468;2023-09-08T12:00:30;31.30;99.90
27306;DHT22;14792;50.886;6.468;2023-09-08T12:03:31;31.40;99.90
27306;DHT22;14792;50.886;6.468;2023-09-08T12:06:32;31.60;99.90
27306;DHT22;14792;50.886;6.468;2023-09-08T12:09:34;31.50;99.90
27306;DHT22;14792;50.886;6.468;2023-09-08T12:12:41;31.60;99.90
27306;DHT22;14792;50.886;6.468;2023-09-08T12:15:37;31.50;99.90
27306;DHT22;14792;50.886;6.468;2023-09-08T12:18:39;31.40;99.90
27306;DHT22;14792;50.886;6.468;2023-09-08T12:21:55;31.30;99.90
27306;DHT22;14792;50.886;6.468;2023-09-08T12:24:56;31.70;99.90
27306;DHT22;14792;50.886;6.468;2023-09-08T12:27:58;32.00;99.90
27306;DHT22;14792;50.886;6.468;2023-09-08T12:30:59;32.20;99.90
27306;DHT22;14792;50.886;6.468;2023-09-08T12:34:01;32.30;99.90
27306;DHT22;14792;50.886;6.468;2023-09-08T12:37:02;32.30;99.70
27306;DHT22;14792;50.886;6.468;2023-09-08T12:40:04;32.40;99.00
27306;DHT22;14792;50.886;6.468;2023-09-08T12:43:05;32.20;99.80
27306;DHT22;14792;50.886;6.468;2023-09-08T12:46:07;32.30;99.80
27306;DHT22;14792;50.886;6.468;2023-09-08T12:49:09;32.50;99.90
27306;DHT22;14792;50.886;6.468;2023-09-08T12:52:10;32.90;99.90
27306;DHT22;14792;50.886;6.468;2023-09-08T12:55:12;32.80;97.80
27306;DHT22;14792;50.886;6.468;2023-09-08T12:58:13;32.40;98.20
27306;DHT22;14792;50.886;6.468;2023-09-08T13:01:16;32.60;99.30
27306;DHT22;14792;50.886;6.468;2023-09-08T13:04:18;32.70;98.50
27306;DHT22;14792;50.886;6.468;2023-09-08T13:07:19;32.80;99.00
27306;DHT22;14792;50.886;6.468;2023-09-08T13:10:21;32.90;98.00
27306;DHT22;14792;50.886;6.468;2023-09-08T13:13:22;32.90;98.10
27306;DHT22;14792;50.886;6.468;2023-09-08T13:16:24;32.90;99.10
27306;DHT22;14792;50.886;6.468;2023-09-08T13:19:26;32.70;99.40
27306;DHT22;14792;50.886;6.468;2023-09-08T13:22:27;32.60;97.30
27306;DHT22;14792;50.886;6.468;2023-09-08T13:25:29;32.80;98.40
27306;DHT22;14792;50.886;6.468;2023-09-08T13:28:30;32.90;99.90
27306;DHT22;14792;50.886;6.468;2023-09-08T13:31:32;33.10;99.20
27306;DHT22;14792;50.886;6.468;2023-09-08T13:34:34;33.10;98.90
27306;DHT22;14792;50.886;6.468;2023-09-08T13:37:35;33.10;98.50
27306;DHT22;14792;50.886;6.468;2023-09-08T13:40:37;33.30;97.90
27306;DHT22;14792;50.886;6.468;2023-09-08T13:43:38;33.40;97.70
27306;DHT22;14792;50.886;6.468;2023-09-08T13:46:40;33.30;98.40
27306;DHT22;14792;50.886;6.468;2023-09-08T13:49:42;33.30;97.70
27306;DHT22;14792;50.886;6.468;2023-09-08T13:52:43;33.50;98.30
27306;DHT22;14792;50.886;6.468;2023-09-08T13:55:45;33.50;97.90
27306;DHT22;14792;50.886;6.468;2023-09-08T13:58:46;33.50;97.20
27306;DHT22;14792;50.886;6.468;2023-09-08T14:01:48;33.50;96.50
27306;DHT22;14792;50.886;6.468;2023-09-08T14:04:49;33.20;99.50
27306;DHT22;14792;50.886;6.468;2023-09-08T14:07:51;33.20;97.00
27306;DHT22;14792;50.886;6.468;2023-09-08T14:10:53;33.50;99.90
27306;DHT22;14792;50.886;6.468;2023-09-08T14:13:54;33.60;98.80
27306;DHT22;14792;50.886;6.468;2023-09-08T14:16:56;33.50;97.40
27306;DHT22;14792;50.886;6.468;2023-09-08T14:19:57;33.50;99.20
27306;DHT22;14792;50.886;6.468;2023-09-08T14:22:59;33.40;97.10
27306;DHT22;14792;50.886;6.468;2023-09-08T14:26:01;33.40;96.70
27306;DHT22;14792;50.886;6.468;2023-09-08T14:29:02;33.50;97.10
27306;DHT22;14792;50.886;6.468;2023-09-08T14:32:04;33.20;97.80
27306;DHT22;14792;50.886;6.468;2023-09-08T14:35:05;33.20;97.30
27306;DHT22;14792;50.886;6.468;2023-09-08T14:38:07;33.20;98.30
27306;DHT22;14792;50.886;6.468;2023-09-08T14:41:09;33.20;98.00
27306;DHT22;14792;50.886;6.468;2023-09-08T14:44:10;32.80;97.00
27306;DHT22;14792;50.886;6.468;2023-09-08T14:47:12;32.80;99.80
27306;DHT22;14792;50.886;6.468;2023-09-08T14:50:13;33.00;97.30
27306;DHT22;14792;50.886;6.468;2023-09-08T14:53:15;32.90;97.10
27306;DHT22;14792;50.886;6.468;2023-09-08T14:56:16;32.70;98.60
27306;DHT22;14792;50.886;6.468;2023-09-08T14:59:18;32.50;96.80
27306;DHT22;14792;50.886;6.468;2023-09-08T15:02:20;32.50;97.00
27306;DHT22;14792;50.886;6.468;2023-09-08T15:05:21;32.50;96.60
27306;DHT22;14792;50.886;6.468;2023-09-08T15:08:23;32.80;97.90
27306;DHT22;14792;50.886;6.468;2023-09-08T15:11:24;32.70;97.60
27306;DHT22;14792;50.886;6.468;2023-09-08T15:14:26;32.60;98.00
27306;DHT22;14792;50.886;6.468;2023-09-08T15:17:28;32.30;99.40
27306;DHT22;14792;50.886;6.468;2023-09-08T15:20:29;32.00;99.80
27306;DHT22;14792;50.886;6.468;2023-09-08T15:23:31;32.10;99.90
27306;DHT22;14792;50.886;6.468;2023-09-08T15:26:32;31.90;99.40
27306;DHT22;14792;50.886;6.468;2023-09-08T15:29:34;31.60;99.90
27306;DHT22;14792;50.886;6.468;2023-09-08T15:32:36;31.60;99.90
27306;DHT22;14792;50.886;6.468;2023-09-08T15:35:37;31.60;99.90
27306;DHT22;14792;50.886;6.468;2023-09-08T15:38:39;31.40;99.90
27306;DHT22;14792;50.886;6.468;2023-09-08T15:41:40;31.30;99.90
27306;DHT22;14792;50.886;6.468;2023-09-08T15:44:42;31.30;99.90
27306;DHT22;14792;50.886;6.468;2023-09-08T15:47:43;31.40;99.90
27306;DHT22;14792;50.886;6.468;2023-09-08T15:50:45;31.40;99.90
27306;DHT22;14792;50.886;6.468;2023-09-08T15:53:47;31.40;99.90
27306;DHT22;14792;50.886;6.468;2023-09-08T15:56:48;31.40;99.90
27306;DHT22;14792;50.886;6.468;2023-09-08T15:59:50;31.50;99.90
27306;DHT22;14792;50.886;6.468;2023-09-08T16:02:52;31.50;99.70
27306;DHT22;14792;50.886;6.468;2023-09-08T16:05:53;31.20;99.90
27306;DHT22;14792;50.886;6.468;2023-09-08T16:08:55;31.10;99.90
27306;DHT22;14792;50.886;6.468;2023-09-08T16:11:56;31.20;99.90
27306;DHT22;14792;50.886;6.468;2023-09-08T16:14:58;31.20;99.90
27306;DHT22;14792;50.886;6.468;2023-09-08T16:18:00;31.00;99.90
27306;DHT22;14792;50.886;6.468;2023-09-08T16:21:01;30.90;99.90
27306;DHT22;14792;50.886;6.468;2023-09-08T16:24:02;30.70;99.90
27306;DHT22;14792;50.886;6.468;2023-09-08T16:27:04;30.60;99.90
27306;DHT22;14792;50.886;6.468;2023-09-08T16:30:05;30.50;99.90
27306;DHT22;14792;50.886;6.468;2023-09-08T16:33:07;30.30;99.90
27306;DHT22;14792;50.886;6.468;2023-09-08T16:36:08;30.20;99.90
27306;DHT22;14792;50.886;6.468;2023-09-08T16:39:10;30.10;99.90
27306;DHT22;14792;50.886;6.468;2023-09-08T16:42:14;30.00;99.90
27306;DHT22;14792;50.886;6.468;2023-09-08T16:45:15;29.90;99.90
27306;DHT22;14792;50.886;6.468;2023-09-08T16:48:18;29.80;99.90
27306;DHT22;14792;50.886;6.468;2023-09-08T16:51:19;29.70;99.90
27306;DHT22;14792;50.886;6.468;2023-09-08T16:54:21;29.70;99.90
27306;DHT22;14792;50.886;6.468;2023-09-08T16:57:23;29.50;99.90
27306;DHT22;14792;50.886;6.468;2023-09-08T17:00:24;29.40;99.90
27306;DHT22;14792;50.886;6.468;2023-09-08T17:03:26;29.30;99.90
27306;DHT22;14792;50.886;6.468;2023-09-08T17:06:27;29.30;99.90
27306;DHT22;14792;50.886;6.468;2023-09-08T17:09:29;29.20;99.90
27306;DHT22;14792;50.886;6.468;2023-09-08T17:12:30;29.10;99.90
27306;DHT22;14792;50.886;6.468;2023-09-08T17:15:32;29.00;99.90
27306;DHT22;14792;50.886;6.468;2023-09-08T17:18:34;28.90;99.90
27306;DHT22;14792;50.886;6.468;2023-09-08T17:21:35;28.90;99.90
27306;DHT22;14792;50.886;6.468;2023-09-08T17:24:37;28.80;99.90
27306;DHT22;14792;50.886;6.468;2023-09-08T17:27:40;28.70;99.90
27306;DHT22;14792;50.886;6.468;2023-09-08T17:30:40;28.60;99.90
27306;DHT22;14792;50.886;6.468;2023-09-08T17:33:42;28.50;99.90
27306;DHT22;14792;50.886;6.468;2023-09-08T17:36:43;28.30;99.90
27306;DHT22;14792;50.886;6.468;2023-09-08T17:39:45;28.20;99.90
27306;DHT22;14792;50.886;6.468;2023-09-08T17:42:46;28.10;99.90
27306;DHT22;14792;50.886;6.468;2023-09-08T17:45:48;28.00;99.90
27306;DHT22;14792;50.886;6.468;2023-09-08T17:48:50;27.80;99.90
27306;DHT22;14792;50.886;6.468;2023-09-08T17:51:51;27.60;99.90
27306;DHT22;14792;50.886;6.468;2023-09-08T17:54:53;27.50;99.90
27306;DHT22;14792;50.886;6.468;2023-09-08T17:57:54;27.40;99.90
27306;DHT22;14792;50.886;6.468;2023-09-08T18:00:56;27.30;99.90
27306;DHT22;14792;50.886;6.468;2023-09-08T18:03:57;27.10;99.90
27306;DHT22;14792;50.886;6.468;2023-09-08T18:06:59;26.80;99.90
27306;DHT22;14792;50.886;6.468;2023-09-08T18:10:01;26.80;99.90
27306;DHT22;14792;50.886;6.468;2023-09-08T18:13:02;26.60;99.90
27306;DHT22;14792;50.886;6.468;2023-09-08T18:16:04;26.40;99.90
27306;DHT22;14792;50.886;6.468;2023-09-08T18:19:05;26.30;99.90
27306;DHT22;14792;50.886;6.468;2023-09-08T18:22:07;26.10;99.90
27306;DHT22;14792;50.886;6.468;2023-09-08T18:25:09;26.00;99.90
27306;DHT22;14792;50.886;6.468;2023-09-08T18:28:10;25.90;99.90
27306;DHT22;14792;50.886;6.468;2023-09-08T18:31:12;25.80;99.90
27306;DHT22;14792;50.886;6.468;2023-09-08T18:34:13;25.70;99.90
27306;DHT22;14792;50.886;6.468;2023-09-08T18:37:15;25.50;99.90
27306;DHT22;14792;50.886;6.468;2023-09-08T18:40:17;25.40;99.90
27306;DHT22;14792;50.886;6.468;2023-09-08T18:43:18;25.20;99.90
27306;DHT22;14792;50.886;6.468;2023-09-08T18:46:20;25.00;99.90
27306;DHT22;14792;50.886;6.468;2023-09-08T18:49:21;24.90;99.90
27306;DHT22;14792;50.886;6.468;2023-09-08T18:52:23;24.70;99.90
27306;DHT22;14792;50.886;6.468;2023-09-08T18:55:24;24.50;99.90
27306;DHT22;14792;50.886;6.468;2023-09-08T18:58:26;24.20;99.90
27306;DHT22;14792;50.886;6.468;2023-09-08T19:01:28;24.20;99.90
27306;DHT22;14792;50.886;6.468;2023-09-08T19:04:29;24.20;99.90
27306;DHT22;14792;50.886;6.468;2023-09-08T19:07:31;24.00;99.90
27306;DHT22;14792;50.886;6.468;2023-09-08T19:10:32;23.80;99.90
27306;DHT22;14792;50.886;6.468;2023-09-08T19:13:34;23.70;99.90
27306;DHT22;14792;50.886;6.468;2023-09-08T19:16:36;23.80;99.90
27306;DHT22;14792;50.886;6.468;2023-09-08T19:19:37;23.80;99.90